Terminal Aerodrome Forecast
Issued by NWS

Home | Current Version | Previous Version | Graphics & Text | Print | Product List | Glossary On
Versions: 1 2 3 4 5 6 7 8 9 10 11 12 13 14 15
000
FTUS45 KGGW 272300
TAFSDY
TAF
KSDY 272324Z 2800/2824 15011KT P6SM VCTS SCT040CB
     FM280200 24013G25KT 4SM TSRA BKN030CB
     FM280600 25020G30KT P6SM VCSH SCT030 BKN060
     FM281800 27030G45KT P6SM -RA BKN025
      AMD LTD TO CLD VIS AND WIND=

USA.gov is the U.S. government's official web portal to all federal, state and local government web resources and services.